Time;durP1;ratioP1;P1;durP2;ratioP2;P2;SDS_P1;SDS_P2;PMS_P1;PMS_P2;Temp;Humidity;BMP_temperature;BMP_pressure;BME280_temperature;BME280_humidity;BME280_pressure;Samples;Min_cycle;Max_cycle;Signal;HPM_P1;HPM_P2
2020/12/20 00:01:20;;;;;;;62.45;32.22;;;4.90;99.90;;;;;;5077115;28;20413;-48
2020/12/20 00:03:49;;;;;;;56.45;31.67;;;5.00;99.90;;;;;;5064009;28;20048;-48
2020/12/20 00:06:15;;;;;;;56.30;28.67;;;4.90;99.90;;;;;;5071280;28;20371;-48
2020/12/20 00:08:49;;;;;;;51.08;26.10;;;4.90;99.90;;;;;;5072798;28;20053;-48
2020/12/20 00:11:16;;;;;;;39.10;24.55;;;4.90;99.90;;;;;;5073078;28;20048;-48
2020/12/20 00:13:42;;;;;;;32.70;20.10;;;4.80;99.90;;;;;;5070747;28;20143;-48
2020/12/20 00:16:09;;;;;;;53.05;27.35;;;4.70;99.90;;;;;;5067443;28;20060;-48
2020/12/20 00:18:35;;;;;;;70.45;37.05;;;4.60;99.90;;;;;;5072059;28;20071;-48
2020/12/20 00:21:02;;;;;;;70.30;40.50;;;4.40;99.90;;;;;;5078218;28;20459;-48
2020/12/20 00:23:29;;;;;;;50.50;32.92;;;4.10;99.90;;;;;;5073272;28;20053;-48
2020/12/20 00:25:57;;;;;;;35.65;22.33;;;3.90;99.90;;;;;;5058951;28;20044;-47
2020/12/20 00:28:24;;;;;;;43.20;21.63;;;4.00;99.90;;;;;;5069955;28;20048;-48
2020/12/20 00:30:50;;;;;;;45.22;26.67;;;4.00;99.90;;;;;;5071310;28;20409;-48
2020/12/20 00:33:17;;;;;;;82.68;35.72;;;3.90;99.90;;;;;;5079745;28;20411;-47
2020/12/20 00:35:43;;;;;;;70.95;31.40;;;3.80;99.90;;;;;;5078291;28;20040;-48
2020/12/20 00:38:09;;;;;;;33.80;17.02;;;3.80;99.90;;;;;;5069798;28;20063;-47
2020/12/20 00:40:36;;;;;;;42.75;19.75;;;3.70;99.90;;;;;;5067921;28;20048;-48
2020/12/20 00:43:02;;;;;;;44.53;20.92;;;3.70;99.90;;;;;;5058947;28;20052;-48
2020/12/20 00:45:29;;;;;;;30.23;17.42;;;3.70;99.90;;;;;;5065824;28;20409;-48
2020/12/20 00:47:55;;;;;;;38.20;19.85;;;3.80;99.90;;;;;;5058016;28;20052;-48
2020/12/20 00:50:22;;;;;;;83.18;19.08;;;3.80;99.90;;;;;;5072016;28;20056;-47
2020/12/20 00:52:48;;;;;;;62.13;18.02;;;3.80;99.90;;;;;;5062678;28;20056;-48
2020/12/20 00:55:15;;;;;;;41.53;13.73;;;3.80;99.90;;;;;;5071670;28;20053;-48
2020/12/20 00:57:42;;;;;;;33.13;15.98;;;3.90;99.90;;;;;;5070638;28;20052;-48
2020/12/20 01:00:09;;;;;;;63.85;17.63;;;3.90;99.90;;;;;;5072646;28;20045;-48
2020/12/20 01:02:35;;;;;;;36.38;15.15;;;3.90;99.90;;;;;;5070401;28;20059;-48
2020/12/20 01:05:03;;;;;;;21.50;13.63;;;3.90;99.90;;;;;;5070834;28;20048;-47
2020/12/20 01:07:32;;;;;;;26.77;15.45;;;3.90;99.90;;;;;;5063541;28;20045;-48
2020/12/20 01:09:59;;;;;;;24.42;14.27;;;4.00;99.90;;;;;;5060518;28;20045;-48
2020/12/20 01:12:25;;;;;;;17.08;12.63;;;4.00;99.90;;;;;;5065316;28;20524;-50
2020/12/20 01:14:52;;;;;;;16.25;9.63;;;4.10;99.90;;;;;;5070842;28;20044;-48
2020/12/20 01:17:18;;;;;;;13.32;8.55;;;4.20;99.90;;;;;;5062879;28;20056;-48
2020/12/20 01:19:44;;;;;;;16.00;10.13;;;4.10;99.90;;;;;;5068465;28;20060;-48
2020/12/20 01:22:11;;;;;;;22.25;13.55;;;4.10;99.90;;;;;;5070300;28;20053;-48
2020/12/20 01:24:37;;;;;;;17.73;12.30;;;4.10;99.90;;;;;;5069973;28;20051;-48
2020/12/20 01:27:04;;;;;;;18.88;13.02;;;4.10;99.90;;;;;;5069843;28;20040;-48
2020/12/20 01:29:30;;;;;;;35.78;18.70;;;4.10;99.90;;;;;;5072419;28;20041;-48
2020/12/20 01:31:57;;;;;;;55.75;28.98;;;4.10;99.90;;;;;;5071389;28;20045;-48
2020/12/20 01:34:23;;;;;;;49.97;23.73;;;4.00;99.90;;;;;;5069864;28;20052;-47
2020/12/20 01:36:50;;;;;;;28.33;15.50;;;4.00;99.90;;;;;;5067007;28;20040;-48
2020/12/20 01:39:17;;;;;;;20.77;12.77;;;4.00;99.90;;;;;;5056174;28;20485;-48
2020/12/20 01:41:44;;;;;;;22.70;13.18;;;4.10;99.90;;;;;;5070094;28;20099;-51
2020/12/20 01:44:11;;;;;;;27.45;16.27;;;4.00;99.90;;;;;;5071335;28;20470;-48
2020/12/20 01:46:43;;;;;;;35.45;19.45;;;4.00;99.90;;;;;;5070264;28;20401;-48
2020/12/20 01:49:10;;;;;;;26.75;16.30;;;4.00;99.90;;;;;;5068588;28;20060;-48
2020/12/20 01:51:38;;;;;;;29.50;16.77;;;3.90;99.90;;;;;;5071262;28;20078;-48
2020/12/20 01:54:05;;;;;;;25.17;15.63;;;4.00;99.90;;;;;;5069404;28;20060;-48
2020/12/20 01:56:33;;;;;;;37.00;18.55;;;3.90;99.90;;;;;;5056868;28;20049;-48
2020/12/20 01:59:01;;;;;;;30.52;17.08;;;3.70;99.90;;;;;;5069625;28;20060;-49
2020/12/20 02:01:27;;;;;;;30.10;17.20;;;3.40;99.90;;;;;;5068488;28;20055;-47
2020/12/20 02:03:54;;;;;;;21.42;15.45;;;3.20;99.90;;;;;;5058937;28;20052;-47
2020/12/20 02:06:20;;;;;;;21.50;13.48;;;3.10;99.90;;;;;;5068284;28;20064;-48
2020/12/20 02:08:47;;;;;;;8.90;6.10;;;3.20;99.90;;;;;;5058906;28;20500;-48
2020/12/20 02:11:18;;;;;;;20.25;11.55;;;3.20;99.90;;;;;;5067345;28;20390;-48
2020/12/20 02:13:50;;;;;;;12.57;9.35;;;3.30;99.90;;;;;;5070656;28;20091;-47
2020/12/20 02:16:18;;;;;;;13.13;8.18;;;3.40;99.90;;;;;;5069329;28;20060;-48
2020/12/20 02:18:45;;;;;;;15.10;10.48;;;3.50;99.90;;;;;;5069250;28;20048;-48
2020/12/20 02:21:21;;;;;;;20.88;10.93;;;3.40;99.90;;;;;;5070465;28;20051;-48
2020/12/20 02:23:48;;;;;;;32.45;14.80;;;3.30;99.90;;;;;;5069226;28;20062;-48
2020/12/20 02:26:16;;;;;;;17.60;11.20;;;3.30;99.90;;;;;;5054537;28;20497;-48
2020/12/20 02:28:47;;;;;;;10.15;8.05;;;3.30;99.90;;;;;;5070339;28;20072;-49
2020/12/20 02:31:14;;;;;;;8.07;4.95;;;3.40;99.90;;;;;;5070111;28;20044;-48
2020/12/20 02:33:40;;;;;;;6.88;5.95;;;3.50;99.90;;;;;;5071891;28;20048;-48
2020/12/20 02:36:07;;;;;;;7.15;5.78;;;3.50;99.90;;;;;;5075548;28;20050;-48
2020/12/20 02:38:33;;;;;;;8.85;6.05;;;3.60;99.90;;;;;;5057028;28;20485;-48
2020/12/20 02:41:00;;;;;;;11.43;6.90;;;3.60;99.90;;;;;;5067511;28;20041;-48
2020/12/20 02:43:27;;;;;;;7.53;5.28;;;3.70;99.90;;;;;;5071297;28;20051;-48
2020/12/20 02:45:53;;;;;;;12.63;7.45;;;3.70;99.90;;;;;;5066279;28;20055;-48
2020/12/20 02:48:20;;;;;;;8.82;5.45;;;3.70;99.90;;;;;;5055192;28;20040;-48
2020/12/20 02:50:47;;;;;;;12.63;7.68;;;3.80;99.90;;;;;;5069098;28;20052;-48
2020/12/20 02:53:13;;;;;;;10.93;6.65;;;3.80;99.90;;;;;;5068667;28;20052;-48
2020/12/20 02:55:40;;;;;;;16.05;9.85;;;3.80;99.90;;;;;;5065649;28;20049;-48
2020/12/20 02:58:06;;;;;;;13.57;9.65;;;3.70;99.90;;;;;;5065095;28;20052;-48
2020/12/20 03:00:36;;;;;;;16.25;10.40;;;3.70;99.90;;;;;;5069539;28;20789;-48
2020/12/20 03:03:04;;;;;;;22.92;13.93;;;3.70;99.90;;;;;;5064674;28;20049;-48
2020/12/20 03:05:31;;;;;;;22.83;15.13;;;3.70;99.90;;;;;;5054839;28;20050;-48
2020/12/20 03:07:57;;;;;;;19.48;13.07;;;3.80;99.90;;;;;;5069566;28;20439;-48
2020/12/20 03:10:24;;;;;;;18.88;13.27;;;3.70;99.90;;;;;;5072291;28;20052;-48
2020/12/20 03:12:52;;;;;;;20.00;11.73;;;3.70;99.90;;;;;;5070936;28;20061;-48
2020/12/20 03:15:18;;;;;;;19.77;11.98;;;3.70;99.90;;;;;;5067984;28;20056;-48
2020/12/20 03:17:46;;;;;;;17.63;12.40;;;3.60;99.90;;;;;;5071750;28;20139;-49
2020/12/20 03:20:12;;;;;;;15.35;10.73;;;3.50;99.90;;;;;;5072824;28;20049;-49
2020/12/20 03:22:39;;;;;;;14.77;9.57;;;3.50;99.90;;;;;;5065955;28;20056;-48
2020/12/20 03:25:05;;;;;;;15.90;10.48;;;3.60;99.90;;;;;;5071568;28;20036;-47
2020/12/20 03:27:32;;;;;;;13.00;10.32;;;3.60;99.90;;;;;;5074869;28;20044;-48
2020/12/20 03:29:59;;;;;;;13.23;8.60;;;3.70;99.90;;;;;;5060777;28;20053;-48
2020/12/20 03:32:25;;;;;;;9.52;7.35;;;3.70;99.90;;;;;;5068608;28;20059;-48
2020/12/20 03:34:52;;;;;;;9.32;5.80;;;3.60;99.90;;;;;;5061932;28;20052;-48
2020/12/20 03:37:19;;;;;;;12.75;7.88;;;3.60;99.90;;;;;;5072026;28;20044;-48
2020/12/20 03:39:46;;;;;;;14.88;8.88;;;3.60;99.90;;;;;;5056879;28;20103;-48
2020/12/20 03:42:13;;;;;;;15.77;8.63;;;3.60;99.90;;;;;;5072434;28;20470;-48
2020/12/20 03:44:39;;;;;;;16.20;9.55;;;3.70;99.90;;;;;;5072556;28;20040;-47
2020/12/20 03:47:05;;;;;;;12.23;9.50;;;3.60;99.90;;;;;;5051945;28;20466;-48
2020/12/20 03:49:32;;;;;;;13.73;9.18;;;3.60;99.90;;;;;;5073257;28;20393;-48
2020/12/20 03:51:59;;;;;;;13.60;8.43;;;3.60;99.90;;;;;;5072679;28;20105;-48
2020/12/20 03:54:25;;;;;;;17.48;11.38;;;3.60;99.90;;;;;;5072557;28;20056;-48
2020/12/20 03:56:54;;;;;;;15.40;11.25;;;3.60;99.90;;;;;;5056636;28;20056;-48
2020/12/20 03:59:21;;;;;;;12.30;10.05;;;3.60;99.90;;;;;;5072339;28;20056;-49
2020/12/20 04:01:48;;;;;;;14.35;10.38;;;3.70;99.90;;;;;;5074242;28;20052;-49
2020/12/20 04:04:15;;;;;;;14.07;9.80;;;3.70;99.90;;;;;;5073191;28;20052;-49
2020/12/20 04:06:43;;;;;;;11.48;8.85;;;3.60;99.90;;;;;;5071309;28;20064;-49
2020/12/20 04:09:09;;;;;;;11.60;8.95;;;3.70;99.90;;;;;;5078974;28;20040;-48
2020/12/20 04:11:36;;;;;;;14.90;9.90;;;3.70;99.90;;;;;;5070479;28;20049;-48
2020/12/20 04:14:03;;;;;;;17.20;10.82;;;3.70;99.90;;;;;;5069589;28;20045;-47
2020/12/20 04:16:29;;;;;;;20.30;12.98;;;3.70;99.90;;;;;;5065230;28;20449;-48
2020/12/20 04:18:56;;;;;;;22.85;14.13;;;3.80;99.90;;;;;;5059908;28;20049;-48
2020/12/20 04:21:30;;;;;;;;;;;3.80;99.90;;;;;;5081589;28;20131;-48
2020/12/20 04:23:56;;;;;;;16.52;11.57;;;3.90;99.90;;;;;;5068749;28;19931;-48
2020/12/20 04:26:23;;;;;;;12.93;7.72;;;3.90;99.90;;;;;;5072460;28;20049;-48
2020/12/20 04:28:50;;;;;;;13.93;9.25;;;3.90;99.90;;;;;;5069308;28;20045;-49
2020/12/20 04:31:16;;;;;;;14.27;10.90;;;3.90;99.90;;;;;;5072954;28;20060;-48
2020/12/20 04:33:46;;;;;;;8.55;5.78;;;4.00;99.90;;;;;;5072415;28;20048;-48
2020/12/20 04:36:13;;;;;;;8.50;4.40;;;4.00;99.90;;;;;;5072240;28;20064;-52
2020/12/20 04:38:40;;;;;;;8.18;4.70;;;4.00;99.90;;;;;;5083910;28;20056;-48
2020/12/20 04:41:06;;;;;;;16.67;10.90;;;4.10;99.90;;;;;;5076717;28;20051;-48
2020/12/20 04:43:33;;;;;;;23.63;15.32;;;4.00;99.90;;;;;;5072491;28;20052;-49
2020/12/20 04:46:03;;;;;;;28.52;17.60;;;3.70;99.90;;;;;;5070508;28;20036;-48
2020/12/20 04:48:38;;;;;;;24.35;16.65;;;3.70;99.90;;;;;;5061038;28;20048;-48
2020/12/20 04:51:06;;;;;;;16.02;10.88;;;3.60;99.90;;;;;;5064365;28;20179;-48
2020/12/20 04:53:34;;;;;;;16.85;11.43;;;3.60;99.90;;;;;;5064594;28;20140;-51
2020/12/20 04:56:04;;;;;;;5.57;2.22;;;3.80;99.90;;;;;;5082339;28;20363;-48
2020/12/20 04:58:32;;;;;;;10.38;7.47;;;3.90;99.90;;;;;;5073924;28;20052;-48
2020/12/20 05:00:58;;;;;;;20.27;12.02;;;4.00;99.90;;;;;;5078766;28;20067;-48
2020/12/20 05:03:26;;;;;;;19.92;12.48;;;3.80;99.90;;;;;;5068785;28;20055;-48
2020/12/20 05:05:53;;;;;;;21.25;13.00;;;3.70;99.90;;;;;;5070817;28;20422;-48
2020/12/20 05:08:21;;;;;;;15.13;11.55;;;3.70;99.90;;;;;;5073091;28;20045;-48
2020/12/20 05:10:48;;;;;;;18.83;11.43;;;3.60;99.90;;;;;;5067567;28;20048;-48
2020/12/20 05:13:15;;;;;;;22.83;13.40;;;3.60;99.90;;;;;;5065977;28;20477;-48
2020/12/20 05:15:42;;;;;;;22.15;13.45;;;3.50;99.90;;;;;;5069182;28;20059;-47
2020/12/20 05:18:13;;;;;;;20.38;12.20;;;3.50;99.90;;;;;;5071033;28;20469;-48
2020/12/20 05:20:41;;;;;;;22.20;12.63;;;3.50;99.90;;;;;;5067580;28;20055;-47
2020/12/20 05:23:10;;;;;;;24.85;13.48;;;3.50;99.90;;;;;;5060447;28;20052;-48
2020/12/20 05:25:37;;;;;;;16.30;11.23;;;3.40;99.90;;;;;;5066964;28;20056;-48
2020/12/20 05:28:14;;;;;;;25.55;14.35;;;3.50;99.90;;;;;;5062813;28;20055;-48
2020/12/20 05:30:43;;;;;;;15.25;9.38;;;3.50;99.90;;;;;;5070257;28;20452;-48
2020/12/20 05:33:23;;;;;;;10.35;6.65;;;3.50;99.90;;;;;;5068134;28;20052;-48
2020/12/20 05:35:58;;;;;;;20.05;11.68;;;3.70;99.90;;;;;;5065673;28;20413;-48
2020/12/20 05:38:25;;;;;;;15.63;11.73;;;3.60;99.90;;;;;;5065069;28;20051;-47
2020/12/20 05:40:51;;;;;;;18.67;13.20;;;3.60;99.90;;;;;;5064591;28;20421;-48
2020/12/20 05:43:23;;;;;;;11.95;9.10;;;3.50;99.90;;;;;;5071615;28;20044;-48
2020/12/20 05:45:50;;;;;;;5.47;1.95;;;3.60;99.90;;;;;;5069178;28;20106;-48
2020/12/20 05:48:18;;;;;;;3.35;3.03;;;3.70;99.90;;;;;;5065851;28;20044;-47
2020/12/20 05:51:00;;;;;;;12.38;7.30;;;3.80;99.90;;;;;;5067722;28;20080;-48
2020/12/20 05:53:32;;;;;;;10.40;8.48;;;3.80;99.90;;;;;;5073299;28;20402;-48
2020/12/20 05:56:00;;;;;;;14.85;8.75;;;3.80;99.90;;;;;;5069127;28;20080;-48
2020/12/20 05:58:29;;;;;;;9.38;6.55;;;3.80;99.90;;;;;;5070703;28;20408;-48
2020/12/20 06:00:56;;;;;;;3.38;1.75;;;3.80;99.90;;;;;;5060406;28;20040;-48
2020/12/20 06:03:24;;;;;;;7.75;4.05;;;3.80;99.90;;;;;;5072136;28;20051;-48
2020/12/20 06:05:51;;;;;;;5.78;2.58;;;3.80;99.90;;;;;;5054807;28;20048;-48
2020/12/20 06:08:20;;;;;;;2.92;1.52;;;3.90;99.90;;;;;;5064784;28;20402;-48
2020/12/20 06:10:52;;;;;;;2.92;2.40;;;4.00;99.90;;;;;;5059041;28;21515;-49
2020/12/20 06:13:20;;;;;;;2.83;2.45;;;4.00;99.90;;;;;;5068635;28;20102;-48
2020/12/20 06:15:53;;;;;;;6.15;2.83;;;4.00;99.90;;;;;;5063267;28;20044;-48
2020/12/20 06:18:25;;;;;;;5.70;4.38;;;4.00;99.90;;;;;;5058401;28;20382;-49
2020/12/20 06:21:00;;;;;;;3.93;3.50;;;4.00;99.90;;;;;;5069436;28;20048;-48
2020/12/20 06:23:27;;;;;;;6.03;4.25;;;4.00;99.90;;;;;;5069810;28;20760;-48
2020/12/20 06:25:55;;;;;;;8.52;4.40;;;4.00;99.90;;;;;;5068863;28;20056;-48
2020/12/20 06:28:27;;;;;;;5.00;2.78;;;4.10;99.90;;;;;;5064849;28;20052;-48
2020/12/20 06:30:55;;;;;;;4.22;2.17;;;4.10;99.90;;;;;;5070446;28;20397;-48
2020/12/20 06:33:43;;;;;;;16.52;3.65;;;4.20;99.90;;;;;;5068749;28;20087;-48
2020/12/20 06:36:12;;;;;;;9.80;4.18;;;4.20;99.90;;;;;;5056128;28;20052;-49
2020/12/20 06:38:39;;;;;;;6.82;5.13;;;4.20;99.90;;;;;;5063861;28;20056;-48
2020/12/20 06:41:06;;;;;;;1.63;1.33;;;4.20;99.90;;;;;;5069854;28;20501;-48
2020/12/20 06:43:34;;;;;;;4.55;1.88;;;4.20;99.90;;;;;;5057258;28;20053;-48
2020/12/20 06:46:02;;;;;;;5.95;1.70;;;4.30;99.90;;;;;;5063390;28;20046;-48
2020/12/20 06:48:37;;;;;;;2.90;1.30;;;4.40;99.90;;;;;;5080026;28;20063;-49
2020/12/20 06:51:08;;;;;;;8.77;3.50;;;4.30;99.90;;;;;;5068735;28;20507;-48
2020/12/20 06:53:51;;;;;;;5.65;3.60;;;4.30;99.90;;;;;;5070305;28;20052;-47
2020/12/20 06:56:25;;;;;;;12.80;9.27;;;4.30;99.90;;;;;;5074709;28;20044;-49
2020/12/20 06:58:52;;;;;;;17.85;12.18;;;4.20;99.90;;;;;;5072928;28;20049;-48
2020/12/20 07:01:38;;;;;;;33.67;20.50;;;3.90;99.90;;;;;;5082618;28;20052;-48
2020/12/20 07:04:11;;;;;;;34.90;19.35;;;3.80;99.90;;;;;;5068357;28;20045;-48
2020/12/20 07:06:38;;;;;;;23.02;15.60;;;3.70;99.90;;;;;;5062223;28;20394;-48
2020/12/20 07:09:07;;;;;;;29.10;16.67;;;3.60;99.90;;;;;;5074580;28;20044;-49
2020/12/20 07:11:49;;;;;;;24.35;16.45;;;3.60;99.90;;;;;;5071186;28;20080;-48
2020/12/20 07:14:21;;;;;;;23.35;15.90;;;3.60;99.90;;;;;;5063865;28;20130;-48
2020/12/20 07:16:49;;;;;;;27.63;16.52;;;3.60;99.90;;;;;;5069842;28;20049;-49
2020/12/20 07:19:26;;;;;;;22.63;14.00;;;3.60;99.90;;;;;;5069712;28;20060;-48
2020/12/20 07:21:55;;;;;;;23.00;14.45;;;3.60;99.90;;;;;;5070511;28;20493;-49
2020/12/20 07:24:24;;;;;;;25.73;16.60;;;3.60;99.90;;;;;;5070854;28;20048;-48
2020/12/20 07:26:55;;;;;;;29.65;20.38;;;3.60;99.90;;;;;;5072353;28;20450;-48
2020/12/20 07:29:23;;;;;;;17.10;12.07;;;3.60;99.90;;;;;;5065577;28;20144;-48
2020/12/20 07:31:52;;;;;;;12.55;8.75;;;3.60;99.90;;;;;;5054519;28;20071;-49
2020/12/20 07:34:19;;;;;;;11.50;7.72;;;3.60;99.90;;;;;;5069782;28;20142;-48
2020/12/20 07:36:46;;;;;;;10.73;7.03;;;3.70;99.90;;;;;;5073219;28;20067;-48
2020/12/20 07:39:14;;;;;;;14.98;10.15;;;3.70;99.90;;;;;;5067409;28;20056;-48
2020/12/20 07:41:40;;;;;;;16.25;11.80;;;3.70;99.90;;;;;;5068749;28;20048;-48
2020/12/20 07:44:10;;;;;;;21.83;12.48;;;3.80;99.90;;;;;;5072742;28;20048;-48
2020/12/20 07:46:37;;;;;;;22.23;11.55;;;3.80;99.90;;;;;;5068489;28;20053;-48
2020/12/20 07:49:06;;;;;;;19.13;11.32;;;3.90;99.90;;;;;;5087444;28;20051;-48
2020/12/20 07:51:33;;;;;;;12.90;8.82;;;4.00;99.90;;;;;;5071206;28;20486;-48
2020/12/20 07:54:01;;;;;;;15.13;11.38;;;4.00;99.90;;;;;;5076323;28;20530;-49
2020/12/20 07:56:28;;;;;;;12.32;8.50;;;4.00;99.90;;;;;;5070137;28;20052;-48
2020/12/20 07:59:09;;;;;;;14.80;10.30;;;4.00;99.90;;;;;;5070779;28;20076;-49
2020/12/20 08:01:37;;;;;;;24.80;14.23;;;4.00;99.90;;;;;;5056855;28;20474;-47
2020/12/20 08:04:08;;;;;;;26.13;15.90;;;4.00;99.90;;;;;;5068981;28;20080;-46
2020/12/20 08:06:41;;;;;;;26.83;14.65;;;4.00;99.90;;;;;;5071418;28;20059;-50
2020/12/20 08:09:12;;;;;;;13.40;9.55;;;4.10;99.90;;;;;;5070865;28;20048;-49
2020/12/20 08:11:41;;;;;;;18.55;8.82;;;4.10;99.90;;;;;;5071914;28;20052;-49
2020/12/20 08:14:13;;;;;;;9.55;6.00;;;4.20;99.90;;;;;;5060111;28;20048;-49
2020/12/20 08:16:42;;;;;;;4.78;2.30;;;4.30;99.90;;;;;;5066618;28;20060;-49
2020/12/20 08:19:19;;;;;;;5.40;3.53;;;4.40;99.90;;;;;;5060267;28;20064;-49
2020/12/20 08:22:07;;;;;;;5.10;3.40;;;4.40;99.90;;;;;;5064988;28;20049;-49
2020/12/20 08:24:34;;;;;;;2.05;1.58;;;4.50;99.90;;;;;;5061288;28;20063;-50
2020/12/20 08:27:23;;;;;;;3.85;1.77;;;4.60;99.90;;;;;;5072762;28;20492;-49
2020/12/20 08:29:53;;;;;;;4.72;2.63;;;4.70;99.90;;;;;;5069573;28;20055;-49
2020/12/20 08:32:22;;;;;;;10.43;9.38;;;4.80;99.90;;;;;;5054765;28;20059;-52
2020/12/20 08:34:50;;;;;;;8.95;6.40;;;4.80;99.90;;;;;;5071276;28;20048;-49
2020/12/20 08:37:18;;;;;;;11.90;8.75;;;4.90;99.90;;;;;;5068983;28;20057;-48
2020/12/20 08:39:46;;;;;;;10.63;6.28;;;4.90;99.90;;;;;;5071422;28;20049;-49
2020/12/20 08:42:15;;;;;;;8.02;5.80;;;5.00;99.90;;;;;;5071027;28;20051;-49
2020/12/20 08:44:49;;;;;;;10.35;6.18;;;5.20;99.90;;;;;;5072146;28;20051;-49
2020/12/20 08:47:17;;;;;;;;;;;5.20;99.90;;;;;;5068685;28;20056;-49
2020/12/20 08:49:59;;;;;;;8.88;5.72;;;5.30;99.90;;;;;;5071191;28;19920;-49
2020/12/20 08:52:27;;;;;;;9.85;7.20;;;5.30;99.90;;;;;;5071496;28;20045;-49
2020/12/20 08:54:55;;;;;;;17.15;7.50;;;5.30;99.90;;;;;;5069965;28;20052;-49
2020/12/20 08:57:30;;;;;;;15.85;7.38;;;5.30;99.90;;;;;;5057259;28;20045;-49
2020/12/20 09:00:07;;;;;;;5.40;4.75;;;5.40;99.90;;;;;;5068273;28;20048;-48
2020/12/20 09:02:34;;;;;;;14.35;8.30;;;5.50;99.90;;;;;;5064330;28;20501;-50
2020/12/20 09:05:15;;;;;;;7.72;6.18;;;5.70;99.90;;;;;;5069525;28;20040;-50
2020/12/20 09:07:44;;;;;;;12.45;7.32;;;5.80;99.90;;;;;;5063376;28;20139;-53
2020/12/20 09:10:13;;;;;;;10.32;7.25;;;6.00;99.90;;;;;;5070207;28;20128;-49
2020/12/20 09:12:48;;;;;;;11.20;7.03;;;6.00;99.90;;;;;;5068758;28;20048;-52
2020/12/20 09:15:15;;;;;;;21.80;15.15;;;6.20;99.90;;;;;;5069276;28;20477;-51
2020/12/20 09:17:45;;;;;;;18.30;13.15;;;6.40;99.90;;;;;;5070835;28;20438;-52
2020/12/20 09:20:17;;;;;;;27.10;19.05;;;6.40;99.90;;;;;;5059859;28;20059;-50
2020/12/20 09:22:48;;;;;;;36.88;24.38;;;6.40;99.90;;;;;;5059309;28;20049;-49
2020/12/20 09:25:17;;;;;;;27.85;19.80;;;6.60;99.90;;;;;;5064126;28;20047;-50
2020/12/20 09:27:53;;;;;;;31.25;19.20;;;6.60;99.90;;;;;;5071123;28;20497;-51
2020/12/20 09:30:34;;;;;;;34.58;20.30;;;6.80;99.90;;;;;;5070407;28;20045;-49
2020/12/20 09:33:00;;;;;;;27.42;17.40;;;7.20;99.90;;;;;;5059067;28;20090;-51
2020/12/20 09:35:27;;;;;;;25.00;15.63;;;7.00;99.90;;;;;;5070352;28;20049;-52
2020/12/20 09:37:54;;;;;;;23.77;13.25;;;6.80;99.90;;;;;;5069262;28;20045;-53
2020/12/20 09:40:21;;;;;;;30.08;18.90;;;6.80;99.90;;;;;;5065764;28;20045;-50
2020/12/20 09:42:47;;;;;;;28.60;17.58;;;6.80;99.90;;;;;;5066989;28;20052;-52
2020/12/20 09:45:14;;;;;;;23.55;15.65;;;6.90;99.90;;;;;;5070882;28;20094;-49
2020/12/20 09:47:44;;;;;;;24.33;12.90;;;7.00;99.90;;;;;;5066468;28;20056;-49
2020/12/20 09:50:12;;;;;;;42.47;21.33;;;7.10;99.90;;;;;;5056313;28;20045;-49
2020/12/20 09:52:39;;;;;;;47.70;26.10;;;7.20;99.90;;;;;;5069640;28;20381;-49
2020/12/20 09:55:07;;;;;;;19.08;10.50;;;7.40;99.90;;;;;;5069413;28;20466;-51
2020/12/20 09:57:34;;;;;;;21.35;14.30;;;7.40;99.90;;;;;;5065078;28;20052;-49
2020/12/20 10:00:01;;;;;;;18.48;10.38;;;7.50;99.90;;;;;;5067416;28;20493;-49
2020/12/20 10:02:27;;;;;;;8.23;4.63;;;7.60;99.90;;;;;;5053112;28;20047;-49
2020/12/20 10:04:54;;;;;;;5.05;2.80;;;7.80;99.90;;;;;;5066375;28;20047;-49
2020/12/20 10:07:20;;;;;;;4.70;1.77;;;8.00;99.90;;;;;;5056392;28;20044;-49
2020/12/20 10:09:47;;;;;;;11.88;6.00;;;8.10;99.90;;;;;;5070389;28;20043;-49
2020/12/20 10:12:15;;;;;;;2.88;2.58;;;8.20;99.90;;;;;;5068687;28;20060;-49
2020/12/20 10:14:43;;;;;;;12.00;6.05;;;8.40;99.90;;;;;;5055908;28;20425;-49
2020/12/20 10:17:10;;;;;;;4.43;2.80;;;8.50;99.90;;;;;;5063205;28;20044;-48
2020/12/20 10:19:36;;;;;;;5.28;4.70;;;8.60;99.90;;;;;;5070778;28;20390;-48
2020/12/20 10:22:03;;;;;;;7.05;3.28;;;8.70;99.90;;;;;;5068108;28;20049;-49
2020/12/20 10:24:29;;;;;;;6.68;3.05;;;8.90;99.90;;;;;;5054991;28;20057;-48
2020/12/20 10:26:56;;;;;;;4.28;2.28;;;9.00;99.90;;;;;;5060671;28;20044;-49
2020/12/20 10:29:23;;;;;;;2.40;1.58;;;9.10;99.90;;;;;;5058098;28;20056;-49
2020/12/20 10:31:50;;;;;;;2.28;0.90;;;9.20;99.90;;;;;;5068791;28;20052;-49
2020/12/20 10:34:16;;;;;;;3.88;1.48;;;9.30;99.90;;;;;;5063900;28;20492;-49
2020/12/20 10:36:43;;;;;;;1.08;0.80;;;9.40;99.90;;;;;;5067579;28;20201;-49
2020/12/20 10:39:09;;;;;;;1.23;1.02;;;9.60;99.90;;;;;;5066929;28;20049;-49
2020/12/20 10:41:37;;;;;;;1.13;0.50;;;9.60;99.90;;;;;;5069273;28;20131;-50
2020/12/20 10:44:05;;;;;;;1.75;1.15;;;9.80;99.90;;;;;;5063008;28;20068;-50
2020/12/20 10:46:35;;;;;;;1.70;0.65;;;9.90;99.90;;;;;;5058833;28;20045;-50
2020/12/20 10:49:03;;;;;;;3.72;0.80;;;10.00;99.90;;;;;;5057324;28;20071;-49
2020/12/20 10:51:30;;;;;;;0.85;0.50;;;10.20;99.90;;;;;;5062728;28;20045;-50
2020/12/20 10:53:56;;;;;;;0.40;0.40;;;10.30;99.90;;;;;;5070656;28;20481;-53
2020/12/20 10:56:23;;;;;;;4.20;0.90;;;10.40;99.90;;;;;;5068340;28;20060;-50
2020/12/20 10:58:50;;;;;;;5.07;1.75;;;10.50;99.90;;;;;;5067486;28;20055;-51
2020/12/20 11:01:18;;;;;;;5.57;1.70;;;10.70;99.90;;;;;;5068820;28;20052;-50
2020/12/20 11:03:46;;;;;;;2.92;0.70;;;10.80;99.90;;;;;;5068711;28;20052;-53
2020/12/20 11:06:20;;;;;;;3.33;0.80;;;10.90;99.90;;;;;;5057466;28;20067;-51
2020/12/20 11:08:48;;;;;;;3.67;2.35;;;11.30;99.90;;;;;;5066542;28;20056;-52
2020/12/20 11:11:15;;;;;;;2.28;1.67;;;11.70;99.90;;;;;;5068001;28;20075;-51
2020/12/20 11:13:43;;;;;;;9.25;5.55;;;11.80;99.90;;;;;;5063737;28;20159;-50
2020/12/20 11:16:14;;;;;;;16.80;7.13;;;12.20;99.90;;;;;;5068056;28;20053;-49
2020/12/20 11:18:42;;;;;;;10.93;6.22;;;12.30;99.90;;;;;;5068039;28;20060;-53
2020/12/20 11:21:12;;;;;;;11.02;7.25;;;12.50;99.90;;;;;;5063238;28;20051;-49
2020/12/20 11:23:40;;;;;;;3.08;1.80;;;12.50;99.90;;;;;;5062727;28;20044;-49
2020/12/20 11:26:21;;;;;;;4.63;1.25;;;12.60;99.90;;;;;;5065309;28;20049;-49
2020/12/20 11:28:51;;;;;;;8.57;3.75;;;12.60;99.90;;;;;;5079454;28;20055;-49
2020/12/20 11:31:20;;;;;;;10.00;5.38;;;12.70;99.90;;;;;;5066274;28;20090;-49
2020/12/20 11:33:47;;;;;;;13.00;7.93;;;12.70;99.90;;;;;;5067290;28;20057;-49
2020/12/20 11:36:18;;;;;;;11.52;8.00;;;12.60;99.90;;;;;;5064943;28;20044;-49
2020/12/20 11:38:46;;;;;;;18.65;12.02;;;12.70;99.90;;;;;;5070753;28;20414;-49
2020/12/20 11:41:13;;;;;;;18.45;12.05;;;12.40;99.90;;;;;;5073290;28;20482;-49
2020/12/20 11:43:41;;;;;;;20.38;12.73;;;12.30;99.90;;;;;;5071823;28;20048;-49
2020/12/20 11:46:11;;;;;;;19.25;10.77;;;12.40;99.90;;;;;;5072486;28;20044;-49
2020/12/20 11:48:37;;;;;;;17.35;13.70;;;12.50;99.90;;;;;;5069088;28;20076;-49
2020/12/20 11:51:04;;;;;;;19.30;13.05;;;12.60;99.90;;;;;;5070923;28;20052;-50
2020/12/20 11:53:31;;;;;;;17.27;10.70;;;12.70;99.90;;;;;;5071751;28;20057;-49
2020/12/20 11:56:13;;;;;;;23.63;10.73;;;12.80;99.90;;;;;;5069279;28;20094;-49
2020/12/20 11:58:42;;;;;;;18.10;8.95;;;12.90;99.90;;;;;;5070341;28;20551;-50
2020/12/20 12:01:08;;;;;;;13.93;6.90;;;12.90;99.90;;;;;;5068221;28;20045;-50
2020/12/20 12:03:35;;;;;;;8.15;4.93;;;13.10;99.90;;;;;;5071517;28;20049;-50
2020/12/20 12:06:03;;;;;;;13.20;3.10;;;13.20;99.90;;;;;;5067462;28;20512;-49
2020/12/20 12:08:29;;;;;;;9.18;6.50;;;13.10;99.90;;;;;;5069318;28;20049;-49
2020/12/20 12:10:56;;;;;;;17.90;9.80;;;13.10;99.90;;;;;;5068225;28;20063;-49
2020/12/20 12:13:23;;;;;;;7.68;4.88;;;13.10;99.90;;;;;;5065243;28;20040;-50
2020/12/20 12:15:49;;;;;;;16.10;5.68;;;13.00;99.90;;;;;;5070364;28;20523;-49
2020/12/20 12:18:16;;;;;;;14.13;8.48;;;13.00;99.90;;;;;;5072054;28;20061;-49
2020/12/20 12:20:43;;;;;;;7.22;2.65;;;13.00;99.90;;;;;;5069444;28;20443;-49
2020/12/20 12:23:10;;;;;;;11.40;6.22;;;12.90;99.90;;;;;;5071455;28;20044;-49
2020/12/20 12:25:37;;;;;;;9.70;6.03;;;12.90;99.90;;;;;;5072655;28;20397;-50
2020/12/20 12:28:04;;;;;;;26.08;17.60;;;12.80;99.90;;;;;;5068693;28;20053;-49
2020/12/20 12:30:30;;;;;;;24.45;14.85;;;12.80;99.90;;;;;;5070796;28;20049;-50
2020/12/20 12:32:57;;;;;;;15.20;10.20;;;12.80;99.90;;;;;;5072160;28;20139;-50
2020/12/20 12:35:24;;;;;;;3.42;2.45;;;12.70;99.90;;;;;;5070374;28;20060;-49
2020/12/20 12:37:51;;;;;;;4.78;2.88;;;12.70;99.90;;;;;;5071469;28;20052;-49
2020/12/20 12:40:20;;;;;;;3.85;2.03;;;12.70;99.90;;;;;;5070086;28;20052;-49
2020/12/20 12:42:47;;;;;;;2.13;1.15;;;12.70;99.90;;;;;;5069403;28;20044;-49
2020/12/20 12:45:14;;;;;;;1.05;0.90;;;12.60;99.90;;;;;;5068333;28;20470;-49
2020/12/20 12:47:42;;;;;;;4.57;1.00;;;12.60;99.90;;;;;;5068570;28;20091;-49
2020/12/20 12:50:09;;;;;;;3.40;1.15;;;12.60;99.90;;;;;;5071002;28;20062;-49